createdAt,value
2022-09-22T00:02:44.251Z,15.7
2022-09-22T00:08:19.377Z,15.6
2022-09-22T00:13:55.269Z,15.6
2022-09-22T00:19:32.644Z,15.6
2022-09-22T00:25:07.774Z,15.5
2022-09-22T00:31:00.739Z,15.5
2022-09-22T00:36:35.806Z,15.5
2022-09-22T00:42:10.639Z,15.5
2022-09-22T00:48:04.316Z,15.4
2022-09-22T00:54:26.191Z,15.3
2022-09-22T01:00:01.035Z,15.3
2022-09-22T01:05:35.890Z,15.3
2022-09-22T01:11:11.093Z,15.3
2022-09-22T01:16:49.787Z,15.2
2022-09-22T01:22:24.783Z,15.2
2022-09-22T01:28:08.364Z,15.2
2022-09-22T01:33:48.087Z,15.2
2022-09-22T01:39:24.076Z,15.1
2022-09-22T01:44:58.922Z,15.1
2022-09-22T01:50:34.335Z,15
2022-09-22T01:56:10.164Z,15
2022-09-22T02:01:45.032Z,14.9
2022-09-22T02:07:31.694Z,14.9
2022-09-22T02:13:14.018Z,14.8
2022-09-22T02:18:49.887Z,14.8
2022-09-22T02:24:48.043Z,14.7
2022-09-22T02:30:27.542Z,14.7
2022-09-22T02:36:02.330Z,14.7
2022-09-22T02:41:37.425Z,14.7
2022-09-22T02:47:12.420Z,14.6
2022-09-22T02:52:47.548Z,14.6
2022-09-22T02:58:22.101Z,14.5
2022-09-22T03:04:01.087Z,14.5
2022-09-22T03:10:09.498Z,14.5
2022-09-22T03:15:44.361Z,14.4
2022-09-22T03:21:29.430Z,14.4
2022-09-22T03:27:04.269Z,14.3
2022-09-22T03:32:40.233Z,14.3
2022-09-22T03:38:15.444Z,14.3
2022-09-22T03:44:01.976Z,14.2
2022-09-22T03:49:38.235Z,14.2
2022-09-22T03:55:13.565Z,14.1
2022-09-22T04:00:55.033Z,14.1
2022-09-22T04:06:31.280Z,14.1
2022-09-22T04:12:06.168Z,14
2022-09-22T04:17:41.146Z,14
2022-09-22T04:23:17.240Z,14
2022-09-22T04:28:57.178Z,14
2022-09-22T04:34:42.243Z,14
2022-09-22T04:40:16.905Z,13.9
2022-09-22T04:45:52.971Z,13.9
2022-09-22T04:51:31.605Z,13.9
2022-09-22T04:57:06.624Z,13.9
2022-09-22T05:02:41.977Z,13.8
2022-09-22T05:08:17.615Z,13.8
2022-09-22T05:13:52.617Z,13.8
2022-09-22T05:19:27.755Z,13.8
2022-09-22T05:25:02.785Z,13.7
2022-09-22T05:30:58.363Z,13.7
2022-09-22T05:36:42.075Z,13.7
2022-09-22T05:42:16.768Z,13.6
2022-09-22T05:47:54.116Z,13.6
2022-09-22T05:53:28.876Z,13.6
2022-09-22T05:59:08.853Z,12.4
2022-09-22T06:04:43.669Z,12.1
2022-09-22T06:10:27.597Z,11.9
2022-09-22T06:16:03.071Z,11.9
2022-09-22T06:23:19.247Z,12
2022-09-22T06:28:54.058Z,12
2022-09-22T06:34:28.972Z,12.1
2022-09-22T06:40:16.706Z,12.3
2022-09-22T06:45:54.675Z,12.5
2022-09-22T06:51:30.989Z,12.5
2022-09-22T06:57:05.918Z,12.7
2022-09-22T07:02:41.939Z,12.8
2022-09-22T07:08:16.760Z,13
2022-09-22T07:13:52.696Z,13.2
2022-09-22T07:19:28.331Z,13.4
2022-09-22T07:25:04.661Z,13.6
2022-09-22T07:30:40.670Z,13.8
2022-09-22T07:36:15.859Z,14
2022-09-22T07:41:51.035Z,14.3
2022-09-22T07:47:30.074Z,14.5
2022-09-22T07:53:05.643Z,14.7
2022-09-22T07:58:43.541Z,15
2022-09-22T08:04:18.984Z,15.2
2022-09-22T08:09:54.907Z,15.5
2022-09-22T08:15:30.558Z,15.8
2022-09-22T08:21:06.259Z,16
2022-09-22T08:26:51.029Z,16.2
2022-09-22T08:32:26.499Z,16.5
2022-09-22T08:38:03.439Z,16.7
2022-09-22T08:43:43.856Z,17
2022-09-22T08:49:19.896Z,17.1
2022-09-22T08:54:54.899Z,17.3
2022-09-22T09:00:31.083Z,17.5
2022-09-22T09:06:07.230Z,17.8
2022-09-22T09:12:04.432Z,18
2022-09-22T09:17:37.151Z,18.1
2022-09-22T09:23:12.193Z,18.3
2022-09-22T09:28:46.978Z,18.5
2022-09-22T09:34:22.517Z,18.6
2022-09-22T09:39:58.428Z,18.8
2022-09-22T09:45:33.248Z,19.1
2022-09-22T09:51:08.250Z,19.2
2022-09-22T09:56:43.303Z,19.3
2022-09-22T10:02:18.387Z,19.6
2022-09-22T10:07:53.904Z,19.8
2022-09-22T10:13:33.990Z,19.8
2022-09-22T10:19:08.810Z,20.2
2022-09-22T10:24:45.516Z,20.3
2022-09-22T10:30:20.698Z,20.4
2022-09-22T10:35:55.655Z,20.7
2022-09-22T10:41:30.607Z,20.9
2022-09-22T10:47:05.579Z,21.2
2022-09-22T10:52:41.537Z,21.3
2022-09-22T10:58:16.614Z,21.5
2022-09-22T11:03:53.613Z,21.6
2022-09-22T11:09:34.644Z,21.9
2022-09-22T11:15:10.421Z,22
2022-09-22T11:20:45.580Z,22.2
2022-09-22T11:26:21.039Z,22.1
2022-09-22T11:31:56.206Z,22.2
2022-09-22T11:37:31.201Z,22.4
2022-09-22T11:43:08.302Z,22.8
2022-09-22T11:48:43.510Z,22.8
2022-09-22T11:54:18.453Z,23.2
2022-09-22T11:59:53.139Z,22.9
2022-09-22T12:05:28.396Z,22.9
2022-09-22T12:11:03.421Z,23.2
2022-09-22T12:16:39.686Z,23.3
2022-09-22T12:22:14.686Z,23.5
2022-09-22T12:27:49.601Z,23.8
2022-09-22T12:33:24.486Z,24
2022-09-22T12:38:59.487Z,24.4
2022-09-22T12:44:34.249Z,24.6
2022-09-22T12:50:09.185Z,24.8
2022-09-22T12:55:44.066Z,24.8
2022-09-22T13:01:19.460Z,25.5
2022-09-22T13:07:07.722Z,25.8
2022-09-22T13:12:44.520Z,25.9
2022-09-22T13:18:19.712Z,26
2022-09-22T13:23:58.324Z,25.5
2022-09-22T13:29:38.117Z,25.6
2022-09-22T13:35:15.244Z,25.7
2022-09-22T13:40:50.401Z,25.8
2022-09-22T13:46:27.565Z,26
2022-09-22T13:52:04.012Z,26.1
2022-09-22T13:57:40.758Z,26.3
2022-09-22T14:03:15.673Z,26.5
2022-09-22T14:08:50.674Z,26.7
2022-09-22T14:14:25.666Z,26.9
2022-09-22T14:20:00.914Z,27
2022-09-22T14:25:42.421Z,27.2
2022-09-22T14:31:23.224Z,27.4
2022-09-22T14:36:59.518Z,27.5
2022-09-22T14:42:34.977Z,27.7
2022-09-22T14:48:20.342Z,27.8
2022-09-22T14:53:55.435Z,27.9
2022-09-22T14:59:41.988Z,27.9
2022-09-22T15:05:26.449Z,27.5
2022-09-22T15:11:10.376Z,27.1
2022-09-22T15:16:47.953Z,26.7
2022-09-22T15:22:44.726Z,26.4
2022-09-22T15:28:27.606Z,26.1
2022-09-22T15:34:12.485Z,25.8
2022-09-22T15:39:52.544Z,25.6
2022-09-22T15:45:31.175Z,25.3
2022-09-22T15:51:07.059Z,25.1
2022-09-22T15:56:46.884Z,24.9
2022-09-22T16:02:25.233Z,24.7
2022-09-22T16:08:06.678Z,24.5
2022-09-22T16:13:41.371Z,24.4
2022-09-22T16:19:16.820Z,24
2022-09-22T16:24:55.021Z,23.6
2022-09-22T16:30:29.915Z,23.3
2022-09-22T16:36:04.669Z,23.1
2022-09-22T16:41:39.633Z,22.9
2022-09-22T16:47:14.393Z,22.7
2022-09-22T16:52:49.273Z,22.5
2022-09-22T16:58:24.358Z,22.4
2022-09-22T17:03:59.264Z,22.2
2022-09-22T17:09:34.784Z,22.1
2022-09-22T17:15:09.471Z,21.9
2022-09-22T17:20:44.521Z,21.7
2022-09-22T17:26:19.564Z,21.6
2022-09-22T17:31:54.843Z,21.4
2022-09-22T17:37:29.985Z,21.3
2022-09-22T17:43:05.222Z,21.1
2022-09-22T17:48:40.325Z,20.9
2022-09-22T17:54:17.019Z,20.7
2022-09-22T17:59:51.898Z,20.5
2022-09-22T18:05:27.155Z,20.3
2022-09-22T18:11:02.799Z,20.1
2022-09-22T18:16:37.954Z,19.9
2022-09-22T18:22:13.942Z,19.7
2022-09-22T18:27:48.910Z,19.6
2022-09-22T18:33:24.078Z,19.4
2022-09-22T18:38:59.014Z,19.2
2022-09-22T18:44:33.776Z,19
2022-09-22T18:50:08.610Z,18.9
2022-09-22T18:55:43.687Z,18.7
2022-09-22T19:01:19.941Z,18.6
2022-09-22T19:06:57.779Z,18.4
2022-09-22T19:12:57.882Z,18.3
2022-09-22T19:18:35.279Z,18.1
2022-09-22T19:24:15.296Z,18.1
2022-09-22T19:30:19.532Z,17.9
2022-09-22T19:36:06.166Z,17.8
2022-09-22T19:41:42.074Z,17.7
2022-09-22T19:47:18.130Z,17.6
2022-09-22T19:52:53.302Z,17.5
2022-09-22T19:58:28.012Z,17.5
2022-09-22T20:04:04.145Z,17.4
2022-09-22T20:09:40.334Z,17.3
2022-09-22T20:15:15.181Z,17.2
2022-09-22T20:20:51.305Z,17.3
2022-09-22T20:26:26.073Z,17.2
2022-09-22T20:32:00.939Z,16.9
2022-09-22T20:37:38.591Z,16.7
2022-09-22T20:43:13.749Z,16.6
2022-09-22T20:48:48.575Z,16.4
2022-09-22T20:54:24.056Z,16.3
2022-09-22T21:00:02.811Z,16.1
2022-09-22T21:05:37.526Z,16
2022-09-22T21:11:35.184Z,15.9
2022-09-22T21:17:07.675Z,15.9
2022-09-22T21:22:43.486Z,15.8
2022-09-22T21:28:18.791Z,15.8
2022-09-22T21:33:53.573Z,15.8
2022-09-22T21:39:28.367Z,15.8
2022-09-22T21:45:04.635Z,15.7
2022-09-22T21:50:39.470Z,15.7
2022-09-22T21:56:14.614Z,15.5
2022-09-22T22:01:58.456Z,15.3
2022-09-22T22:07:33.911Z,15.3
2022-09-22T22:13:31.561Z,15.3
2022-09-22T22:19:04.009Z,15.2
2022-09-22T22:24:39.826Z,15.9
2022-09-22T22:30:14.577Z,16.2
2022-09-22T22:35:50.054Z,16.3
2022-09-22T22:41:46.148Z,16.3
2022-09-22T22:47:21.627Z,16.4
2022-09-22T22:52:57.426Z,16.4
2022-09-22T22:58:41.777Z,16.5
2022-09-22T23:04:16.936Z,16.5
2022-09-22T23:09:55.478Z,16.5
2022-09-22T23:15:30.588Z,16.5
2022-09-22T23:21:06.434Z,16.5
2022-09-22T23:26:47.658Z,16.5
2022-09-22T23:32:22.690Z,16.5
2022-09-22T23:37:58.898Z,16.5
2022-09-22T23:43:34.135Z,16.5
2022-09-22T23:49:09.874Z,16.5
2022-09-22T23:54:45.914Z,16.4
